Time;durP1;ratioP1;P1;durP2;ratioP2;P2;SDS_P1;SDS_P2;PMS_P1;PMS_P2;Temp;Humidity;BMP_temperature;BMP_pressure;BME280_temperature;BME280_humidity;BME280_pressure;Samples;Min_cycle;Max_cycle;Signal;HPM_P1;HPM_P2
2022/11/13 00:01:40;;;;;;;7.92;4.40;;;;;;;9.55;100.00;101221.81;1832715;78;21310;-66
2022/11/13 00:04:25;;;;;;;6.97;3.70;;;;;;;9.51;100.00;101208.73;1832485;76;21017;-66
2022/11/13 00:07:10;;;;;;;7.42;4.33;;;;;;;9.54;100.00;101208.67;1832619;78;21508;-67
2022/11/13 00:09:56;;;;;;;8.18;3.95;;;;;;;9.59;100.00;101210.78;1832525;78;21160;-67
2022/11/13 00:12:41;;;;;;;6.42;4.30;;;;;;;9.48;100.00;101207.45;1832292;78;21012;-66
2022/11/13 00:15:27;;;;;;;6.08;3.70;;;;;;;9.38;100.00;101213.30;1825426;78;21013;-67
2022/11/13 00:18:12;;;;;;;6.12;4.20;;;;;;;9.41;100.00;101207.55;1825249;78;21094;-67
2022/11/13 00:20:58;;;;;;;5.90;3.95;;;;;;;9.37;100.00;101209.80;1825461;78;21531;-66
2022/11/13 00:23:43;;;;;;;6.87;4.00;;;;;;;9.40;100.00;101201.00;1805544;78;21175;-67
2022/11/13 00:26:29;;;;;;;6.28;3.77;;;;;;;9.39;100.00;101202.77;1825428;78;21017;-66
2022/11/13 00:29:14;;;;;;;6.78;3.80;;;;;;;9.41;100.00;101206.24;1825330;78;21540;-65
2022/11/13 00:31:59;;;;;;;5.22;3.42;;;;;;;9.49;100.00;101207.88;1825249;78;21028;-66
2022/11/13 00:34:44;;;;;;;5.85;3.55;;;;;;;9.54;100.00;101204.73;1825067;78;21137;-66
2022/11/13 00:37:29;;;;;;;5.85;3.02;;;;;;;9.53;100.00;101199.92;1825250;78;21227;-66
2022/11/13 00:40:15;;;;;;;6.05;3.52;;;;;;;9.45;100.00;101196.53;1825247;78;21071;-66
2022/11/13 00:43:00;;;;;;;5.78;3.50;;;;;;;9.44;100.00;101186.47;1825278;78;21164;-67
2022/11/13 00:45:44;;;;;;;8.78;3.33;;;;;;;9.36;100.00;101187.05;1825243;78;21559;-66
2022/11/13 00:48:29;;;;;;;5.40;3.10;;;;;;;9.45;100.00;101189.53;1825279;78;21091;-66
2022/11/13 00:51:14;;;;;;;5.58;3.45;;;;;;;9.43;100.00;101182.11;1825136;78;21892;-65
2022/11/13 00:53:59;;;;;;;5.22;2.83;;;;;;;9.54;100.00;101198.16;1825288;78;21576;-67
2022/11/13 00:56:44;;;;;;;5.28;2.70;;;;;;;9.44;100.00;101196.98;1825293;78;21520;-65
2022/11/13 00:59:29;;;;;;;6.65;4.10;;;;;;;9.51;100.00;101191.19;1825214;78;21034;-66
2022/11/13 01:02:18;;;;;;;7.47;2.67;;;;;;;9.52;100.00;101190.73;1820097;78;21085;-67
2022/11/13 01:05:01;;;;;;;4.20;2.70;;;;;;;9.49;100.00;101183.77;1825282;78;21251;-66
2022/11/13 01:07:46;;;;;;;9.45;3.58;;;;;;;9.44;100.00;101186.92;1825235;78;21036;-67
2022/11/13 01:10:33;;;;;;;3.50;2.65;;;;;;;9.36;100.00;101179.16;1825414;78;20993;-67
2022/11/13 01:13:18;;;;;;;9.23;3.30;;;;;;;9.43;100.00;101179.48;1825208;78;21083;-67
2022/11/13 01:16:07;;;;;;;4.72;2.83;;;;;;;9.56;100.00;101172.70;1825249;78;21060;-67
2022/11/13 01:18:54;;;;;;;3.22;2.40;;;;;;;9.55;100.00;101178.88;1825204;78;21004;-65
2022/11/13 01:21:39;;;;;;;5.22;3.08;;;;;;;9.55;100.00;101176.24;1825188;78;21022;-65
2022/11/13 01:24:25;;;;;;;5.15;2.85;;;;;;;9.54;100.00;101173.17;1825429;78;21036;-66
2022/11/13 01:27:12;;;;;;;3.65;2.62;;;;;;;9.58;100.00;101172.23;1824930;78;21551;-67
2022/11/13 01:29:57;;;;;;;6.50;3.00;;;;;;;9.53;100.00;101164.88;1825028;78;21650;-65
2022/11/13 01:32:45;;;;;;;3.60;2.60;;;;;;;9.63;100.00;101171.70;1825108;78;21059;-66
2022/11/13 01:35:29;;;;;;;4.67;2.87;;;;;;;9.63;100.00;101175.66;1825030;78;21520;-66
2022/11/13 01:38:16;;;;;;;6.65;2.98;;;;;;;9.48;100.00;101162.74;1825480;78;21020;-66
2022/11/13 01:41:01;;;;;;;6.40;2.77;;;;;;;9.44;100.00;101161.48;1825068;78;21063;-67
2022/11/13 01:43:47;;;;;;;7.28;3.00;;;;;;;9.48;100.00;101153.12;1825126;78;21067;-66
2022/11/13 01:46:35;;;;;;;3.80;2.62;;;;;;;9.52;100.00;101158.72;1825395;78;21137;-66
2022/11/13 01:49:36;;;;;;;6.00;2.85;;;;;;;9.41;100.00;101156.29;1825182;78;21037;-67
2022/11/13 01:52:28;;;;;;;5.58;2.60;;;;;;;9.48;100.00;101159.69;1825360;78;26111;-66
2022/11/13 01:55:16;;;;;;;4.97;3.25;;;;;;;9.53;100.00;101159.62;1825140;78;21067;-67
2022/11/13 01:58:03;;;;;;;4.28;2.60;;;;;;;9.53;100.00;101156.98;1825207;78;21025;-67
2022/11/13 02:00:48;;;;;;;6.30;3.17;;;;;;;9.57;100.00;101159.97;1818058;78;21645;-67
2022/11/13 05:57:34;;;;;;;8.60;3.37;;;;;;;8.06;100.00;101231.47;1803843;76;28555;-89
2022/11/13 06:00:21;;;;;;;9.13;3.40;;;;;;;8.44;100.00;101232.86;1750728;81;21118;-89
2022/11/13 06:03:09;;;;;;;5.17;3.58;;;;;;;8.53;100.00;101227.96;1761413;80;21110;-90
2022/11/13 06:05:54;;;;;;;5.90;3.47;;;;;;;8.50;100.00;101235.43;1745212;81;21063;-90
2022/11/13 06:08:39;;;;;;;5.00;3.30;;;;;;;8.70;100.00;101231.28;1753502;81;21023;-91
2022/11/13 06:11:27;;;;;;;4.60;3.10;;;;;;;8.80;100.00;101228.09;1703009;84;21114;-91
2022/11/13 06:14:13;;;;;;;3.52;2.60;;;;;;;8.92;100.00;101229.23;1707440;83;21062;-92
2022/11/13 06:16:58;;;;;;;4.15;2.80;;;;;;;9.03;100.00;101241.80;1707591;83;21574;-92
2022/11/13 06:19:44;;;;;;;6.00;3.02;;;;;;;9.16;100.00;101242.97;1725066;81;20979;-92
2022/11/13 06:22:29;;;;;;;4.90;2.70;;;;;;;9.10;100.00;101244.36;1705790;83;21050;-91
2022/11/13 06:25:13;;;;;;;3.52;2.25;;;;;;;9.21;100.00;101247.72;1728078;80;20980;-91
2022/11/13 06:27:59;;;;;;;4.95;2.50;;;;;;;9.31;100.00;101246.69;1726631;83;21077;-91
2022/11/13 06:30:43;;;;;;;2.50;2.27;;;;;;;9.53;100.00;101243.77;1732165;82;21109;-92
2022/11/13 06:33:29;;;;;;;3.70;2.58;;;;;;;9.69;100.00;101242.64;1715496;82;21055;-90
2022/11/13 06:36:18;;;;;;;3.60;2.67;;;;;;;9.77;100.00;101243.36;1726119;83;21018;-90
2022/11/13 06:39:07;;;;;;;3.47;2.45;;;;;;;9.86;100.00;101240.59;1716101;83;21010;-90
2022/11/13 06:41:52;;;;;;;4.40;2.90;;;;;;;9.94;100.00;101239.17;1704462;83;21078;-91
2022/11/13 06:44:37;;;;;;;3.87;2.70;;;;;;;10.02;100.00;101246.92;1715809;83;21131;-91
2022/11/13 06:47:22;;;;;;;3.05;2.58;;;;;;;10.08;100.00;101246.83;1716591;83;21039;-92
2022/11/13 06:50:08;;;;;;;3.75;2.40;;;;;;;10.13;100.00;101244.98;1702977;84;21329;-91
2022/11/13 06:52:55;;;;;;;5.00;2.95;;;;;;;10.17;100.00;101250.62;1702152;84;21058;-92
2022/11/13 06:55:47;;;;;;;3.87;2.77;;;;;;;10.22;100.00;101254.03;1714827;83;21109;-92
2022/11/13 06:58:34;;;;;;;4.37;2.87;;;;;;;10.27;100.00;101242.96;1711807;81;21068;-91
2022/11/13 07:01:21;;;;;;;4.72;2.98;;;;;;;10.37;100.00;101246.78;1706354;83;21108;-90
2022/11/13 07:04:10;;;;;;;7.12;3.50;;;;;;;10.35;100.00;101249.42;1701413;83;21637;-91
2022/11/13 07:06:57;;;;;;;3.58;3.05;;;;;;;10.44;100.00;101248.39;1717741;83;22170;-92
2022/11/13 07:09:43;;;;;;;5.47;3.22;;;;;;;10.49;100.00;101251.84;1706350;83;20980;-91
2022/11/13 07:12:28;;;;;;;5.50;3.00;;;;;;;10.43;100.00;101245.36;1699362;84;21122;-91
2022/11/13 07:15:15;;;;;;;6.35;3.60;;;;;;;10.44;100.00;101248.39;1699851;80;20939;-91
2022/11/13 07:18:02;;;;;;;4.42;3.30;;;;;;;10.48;100.00;101246.99;1699134;84;21046;-91
2022/11/13 07:20:47;;;;;;;4.30;3.30;;;;;;;10.55;100.00;101249.06;1719503;83;21128;-91
2022/11/13 07:23:42;;;;;;;4.33;3.58;;;;;;;10.54;100.00;101252.61;1721242;83;21013;-91
2022/11/13 07:26:30;;;;;;;4.33;3.20;;;;;;;10.59;100.00;101248.12;1703342;83;21062;-92
2022/11/13 07:29:19;;;;;;;4.60;3.50;;;;;;;10.64;100.00;101248.89;1688122;84;21102;-90
2022/11/13 07:32:04;;;;;;;4.95;3.50;;;;;;;10.60;100.00;101237.98;1687351;84;21091;-89
2022/11/13 07:34:49;;;;;;;3.55;2.90;;;;;;;10.68;100.00;101246.63;1687982;84;21068;-91
2022/11/13 07:37:34;;;;;;;5.75;3.87;;;;;;;10.68;100.00;101246.63;1688790;84;21048;-91
2022/11/13 07:40:24;;;;;;;4.35;3.37;;;;;;;10.70;100.00;101245.28;1666479;84;21923;-89
2022/11/13 07:43:14;;;;;;;4.97;3.65;;;;;;;10.78;100.00;101246.44;1689582;83;20987;-91
2022/11/13 07:46:02;;;;;;;4.78;3.40;;;;;;;10.75;100.00;101255.73;1690071;82;21057;-92
2022/11/13 07:48:49;;;;;;;5.30;3.55;;;;;;;10.81;100.00;101258.22;1660874;85;21079;-92
2022/11/13 07:51:34;;;;;;;5.05;4.05;;;;;;;10.87;100.00;101256.34;1716524;83;21615;-92
2022/11/13 07:54:21;;;;;;;6.70;3.77;;;;;;;10.97;100.00;101253.05;1721896;83;21018;-91
2022/11/13 07:57:06;;;;;;;4.47;3.27;;;;;;;11.05;100.00;101251.14;1708948;83;21628;-92
2022/11/13 07:59:51;;;;;;;5.42;3.98;;;;;;;11.08;100.00;101246.25;1709128;83;21007;-92
2022/11/13 08:02:36;;;;;;;4.87;3.80;;;;;;;11.16;100.00;101253.98;1675583;83;21382;-91
2022/11/13 08:05:22;;;;;;;4.55;3.95;;;;;;;11.21;100.00;101252.14;1671397;86;21049;-92
2022/11/13 08:08:09;;;;;;;5.83;4.37;;;;;;;11.30;100.00;101246.67;1663526;85;21906;-92
2022/11/13 08:10:56;;;;;;;4.60;3.95;;;;;;;11.33;100.00;101247.91;1736363;81;21079;-92
2022/11/13 08:13:41;;;;;;;3.87;3.47;;;;;;;11.38;100.00;101248.66;1724723;83;21068;-91
2022/11/13 08:16:28;;;;;;;7.08;4.85;;;;;;;11.49;100.00;101247.97;1720396;83;21058;-90
2022/11/13 08:19:13;;;;;;;6.40;4.58;;;;;;;11.63;100.00;101244.16;1711745;83;20992;-93
2022/11/13 08:21:59;;;;;;;5.03;4.28;;;;;;;11.65;100.00;101250.27;1723317;82;21252;-91
2022/11/13 08:24:44;;;;;;;6.08;4.08;;;;;;;11.89;100.00;101258.95;1712505;80;21091;-89
2022/11/13 08:27:29;;;;;;;4.80;4.12;;;;;;;12.12;100.00;101250.89;1704819;80;21032;-91
2022/11/13 08:30:18;;;;;;;6.22;3.98;;;;;;;12.23;100.00;101248.84;1704643;81;20951;-91
2022/11/13 08:33:03;;;;;;;4.97;3.98;;;;;;;12.27;100.00;101239.94;1723173;80;21036;-90
2022/11/13 08:35:55;;;;;;;6.85;4.05;;;;;;;12.35;100.00;101245.00;1713600;80;21601;-90
2022/11/13 08:38:42;;;;;;;7.70;4.92;;;;;;;12.38;100.00;101245.80;1707287;80;20972;-91
2022/11/13 08:41:27;;;;;;;4.87;4.08;;;;;;;12.53;100.00;101247.61;1708604;82;21538;-90
2022/11/13 08:44:13;;;;;;;6.05;4.55;;;;;;;12.65;100.00;101233.19;1718713;80;21455;-92
2022/11/13 08:46:59;;;;;;;6.90;4.28;;;;;;;12.95;100.00;101235.41;1720076;83;21135;-93
2022/11/13 08:49:48;;;;;;;4.90;3.67;;;;;;;13.21;100.00;101238.16;1703520;84;21587;-92
2022/11/13 08:52:33;;;;;;;5.25;4.28;;;;;;;13.34;100.00;101233.84;1716600;80;20987;-92
2022/11/13 08:55:18;;;;;;;7.30;3.98;;;;;;;13.27;100.00;101223.00;1712712;82;21070;-92
2022/11/13 08:58:03;;;;;;;6.92;3.62;;;;;;;13.47;100.00;101219.78;1712668;83;21149;-92
2022/11/13 09:00:50;;;;;;;9.60;3.77;;;;;;;13.51;100.00;101211.70;1701887;84;21114;-92
2022/11/13 09:03:37;;;;;;;4.33;3.92;;;;;;;13.53;100.00;101221.78;1699556;83;21335;-91
2022/11/13 09:06:25;;;;;;;4.70;3.42;;;;;;;13.45;100.00;101215.84;1711125;81;21074;-92
2022/11/13 09:09:22;;;;;;;5.05;3.58;;;;;;;13.43;100.00;101219.00;1716515;83;21045;-92
2022/11/13 09:12:07;;;;;;;5.47;3.27;;;;;;;13.42;100.00;101215.95;1715254;80;21127;-92
2022/11/13 09:14:52;;;;;;;6.05;3.70;;;;;;;13.47;100.00;101213.16;1717852;83;21128;-92
2022/11/13 09:17:42;;;;;;;4.75;3.70;;;;;;;13.49;100.00;101210.02;1704566;83;22269;-91
2022/11/13 09:20:29;;;;;;;4.03;3.60;;;;;;;13.32;100.00;101207.45;1675334;83;21832;-90
2022/11/13 09:23:14;;;;;;;11.18;3.50;;;;;;;13.15;100.00;101195.16;1710002;83;21070;-90
2022/11/13 09:26:02;;;;;;;5.95;3.37;;;;;;;13.14;100.00;101211.95;1713734;83;21016;-90
2022/11/13 09:28:47;;;;;;;4.03;3.40;;;;;;;13.29;100.00;101207.98;1706775;80;21106;-90
2022/11/13 09:31:37;;;;;;;4.72;3.40;;;;;;;13.36;100.00;101206.87;1714914;83;21567;-92
2022/11/13 09:34:22;;;;;;;4.47;3.27;;;;;;;13.58;100.00;101206.61;1706686;83;21067;-92
2022/11/13 09:37:06;;;;;;;5.35;3.00;;;;;;;13.58;100.00;101205.28;1702417;83;21215;-92
2022/11/13 09:39:51;;;;;;;3.80;3.40;;;;;;;13.49;100.00;101204.72;1703828;83;21073;-92
2022/11/13 09:42:37;;;;;;;5.15;3.40;;;;;;;13.60;100.00;101202.13;1720551;83;21105;-91
2022/11/13 09:45:22;;;;;;;4.95;3.40;;;;;;;13.55;100.00;101198.78;1713585;83;21135;-89
2022/11/13 09:48:22;;;;;;;3.70;3.40;;;;;;;13.49;100.00;101198.97;1699874;80;21029;-92
2022/11/13 09:51:14;;;;;;;4.72;3.60;;;;;;;13.61;100.00;101206.50;1686810;84;21020;-92
2022/11/13 09:54:03;;;;;;;3.47;3.17;;;;;;;13.67;100.00;101203.27;1687649;84;21020;-92
2022/11/13 09:57:27;;;;;;;5.22;3.45;;;;;;;13.75;100.00;101198.11;1687536;84;21084;-91
2022/11/13 10:00:16;;;;;;;5.12;3.58;;;;;;;13.74;100.00;101202.15;1688294;84;21299;-91
2022/11/13 10:03:31;;;;;;;3.87;3.05;;;;;;;13.74;100.00;101200.83;1667793;84;20992;-93
2022/11/13 14:07:46;;;;;;;7.92;3.47;;;;;;;11.26;93.55;101103.92;1799321;78;28140;-92
2022/11/13 14:10:31;;;;;;;9.25;3.77;;;;;;;11.06;95.04;101109.66;1762029;81;21003;-91
2022/11/13 14:13:27;;;;;;;7.40;3.98;;;;;;;10.90;96.76;101099.91;1743884;81;21160;-91
2022/11/13 14:16:14;;;;;;;8.68;3.70;;;;;;;10.85;97.72;101107.06;1743932;81;21070;-90
2022/11/13 14:19:04;;;;;;;6.50;4.03;;;;;;;10.77;99.71;101105.93;1741101;81;21048;-91
2022/11/13 14:21:57;;;;;;;;;;;;;;;10.71;100.00;101110.01;1763081;81;21021;-92
2022/11/13 14:24:54;;;;;;;13.62;5.78;;;;;;;10.59;100.00;101119.05;1754952;81;20458;-92
2022/11/13 14:27:40;;;;;;;9.75;4.55;;;;;;;10.50;100.00;101119.24;1755560;81;21264;-92
2022/11/13 14:30:27;;;;;;;8.75;5.08;;;;;;;10.42;100.00;101123.78;1746445;81;21083;-91
2022/11/13 14:33:16;;;;;;;9.68;5.67;;;;;;;10.31;100.00;101113.92;1766283;80;20902;-89
2022/11/13 14:36:03;;;;;;;10.13;4.60;;;;;;;10.20;100.00;101126.83;1762260;81;21194;-91
2022/11/13 14:38:48;;;;;;;8.28;4.75;;;;;;;10.15;100.00;101117.30;1742292;80;21072;-92
2022/11/13 14:41:40;;;;;;;9.98;4.95;;;;;;;10.04;100.00;101117.49;1756218;81;21124;-92
2022/11/13 14:44:27;;;;;;;9.00;5.15;;;;;;;9.95;100.00;101122.93;1737028;81;21013;-92
2022/11/13 14:47:26;;;;;;;10.85;4.85;;;;;;;9.89;100.00;101119.95;1746670;81;21033;-91
2022/11/13 14:50:33;;;;;;;7.83;4.45;;;;;;;9.87;100.00;101121.31;1742396;81;21103;-90
2022/11/13 14:53:37;;;;;;;14.73;6.90;;;;;;;9.82;100.00;101117.91;1752140;81;21044;-91
2022/11/13 14:56:34;;;;;;;13.53;7.10;;;;;;;9.72;100.00;101117.63;1757682;81;21307;-90
2022/11/13 14:59:26;;;;;;;13.25;7.17;;;;;;;9.70;100.00;101122.05;1718689;81;21564;-93
2022/11/13 15:02:12;;;;;;;21.10;11.68;;;;;;;9.64;100.00;101123.49;1756850;81;21035;-90
2022/11/13 15:04:57;;;;;;;25.80;12.70;;;;;;;9.54;100.00;101130.64;1756963;81;21129;-90
2022/11/13 15:07:44;;;;;;;17.98;9.65;;;;;;;9.53;100.00;101126.75;1741215;81;21107;-91
2022/11/13 15:10:30;;;;;;;12.98;7.42;;;;;;;9.58;100.00;101133.66;1719960;81;21137;-91
2022/11/13 15:13:16;;;;;;;18.27;9.03;;;;;;;9.56;100.00;101135.89;1744338;81;20996;-91
2022/11/13 15:16:03;;;;;;;12.43;7.17;;;;;;;9.52;100.00;101135.06;1734501;81;21059;-91
2022/11/13 15:19:01;;;;;;;14.38;6.95;;;;;;;9.45;100.00;101133.42;1733031;81;21021;-90
2022/11/13 15:21:47;;;;;;;12.03;6.37;;;;;;;9.34;100.00;101133.62;1739745;81;21024;-92
2022/11/13 15:24:33;;;;;;;12.37;5.80;;;;;;;9.30;100.00;101139.81;1724142;81;21795;-92
2022/11/13 15:27:23;;;;;;;11.78;5.58;;;;;;;9.27;100.00;101139.88;1744642;81;21035;-91
2022/11/13 15:30:10;;;;;;;10.80;5.95;;;;;;;9.28;100.00;101136.34;1756373;81;21032;-91
2022/11/13 15:32:56;;;;;;;9.73;4.83;;;;;;;9.32;100.00;101138.03;1747247;81;21097;-91
2022/11/13 15:35:41;;;;;;;9.63;5.22;;;;;;;9.22;100.00;101139.05;1758260;81;21111;-93
2022/11/13 15:38:28;;;;;;;10.63;5.00;;;;;;;9.15;100.00;101142.66;1744258;81;21022;-92
2022/11/13 15:41:17;;;;;;;9.68;4.80;;;;;;;9.18;100.00;101138.70;1738995;81;20985;-90
2022/11/13 15:44:10;;;;;;;12.90;6.72;;;;;;;9.16;100.00;101140.48;1735139;81;21055;-92
2022/11/13 15:46:57;;;;;;;11.63;6.75;;;;;;;9.07;100.00;101141.92;1738241;81;21032;-90
2022/11/13 15:49:45;;;;;;;11.60;5.55;;;;;;;9.02;100.00;101138.91;1759403;81;21014;-92
2022/11/13 15:52:34;;;;;;;16.55;6.00;;;;;;;9.00;100.00;101136.75;1724109;81;21247;-90
2022/11/13 15:55:26;;;;;;;11.90;5.95;;;;;;;9.00;100.00;101142.00;1734732;81;20989;-91
2022/11/13 15:58:15;;;;;;;13.05;8.48;;;;;;;8.93;100.00;101132.93;1739707;81;21009;-90
2022/11/13 16:01:02;;;;;;;13.93;7.05;;;;;;;9.06;100.00;101145.42;1753968;81;21486;-91
2022/11/13 16:03:50;;;;;;;10.70;6.35;;;;;;;8.99;100.00;101152.08;1749912;81;21064;-90
2022/11/13 16:06:35;;;;;;;9.18;5.72;;;;;;;8.96;100.00;101150.81;1734905;81;22227;-90
2022/11/13 16:09:23;;;;;;;11.20;6.92;;;;;;;8.90;100.00;101152.20;1741394;78;21005;-90
2022/11/13 16:12:10;;;;;;;10.38;7.00;;;;;;;8.84;100.00;101148.37;1739134;81;21068;-91
2022/11/13 16:14:56;;;;;;;12.47;6.30;;;;;;;8.78;100.00;101153.23;1760381;81;21120;-93
2022/11/13 16:17:43;;;;;;;13.38;7.75;;;;;;;8.76;100.00;101160.27;1736013;81;20992;-92
2022/11/13 16:20:30;;;;;;;12.37;7.70;;;;;;;8.66;100.00;101159.11;1745609;81;21179;-91
2022/11/13 16:23:20;;;;;;;12.80;7.03;;;;;;;8.65;100.00;101159.98;1736311;81;21066;-92
2022/11/13 16:26:12;;;;;;;12.05;7.90;;;;;;;8.67;100.00;101159.08;1735156;82;21098;-91
2022/11/13 16:28:59;;;;;;;13.98;8.55;;;;;;;8.65;100.00;101157.36;1731228;81;21279;-91
2022/11/13 16:31:44;;;;;;;9.73;6.22;;;;;;;8.64;100.00;101154.33;1686467;81;21062;-91
2022/11/13 16:34:29;;;;;;;16.65;9.23;;;;;;;8.60;100.00;101154.38;1744735;81;21146;-92
2022/11/13 16:37:19;;;;;;;15.48;8.78;;;;;;;8.56;100.00;101154.43;1735631;82;21108;-92
2022/11/13 16:40:21;;;;;;;13.18;9.05;;;;;;;8.46;100.00;101154.96;1742684;81;21684;-93
2022/11/13 16:43:06;;;;;;;13.35;7.12;;;;;;;8.43;100.00;101153.70;1739645;82;21101;-92
2022/11/13 16:45:52;;;;;;;15.85;8.98;;;;;;;8.41;100.00;101155.47;1742784;81;21009;-89
2022/11/13 16:48:40;;;;;;;20.52;12.05;;;;;;;8.31;100.00;101163.00;1738114;82;21092;-91
2022/11/13 16:51:27;;;;;;;16.60;9.05;;;;;;;8.24;100.00;101152.15;1728295;81;21482;-91
2022/11/13 16:54:14;;;;;;;13.13;7.95;;;;;;;8.23;100.00;101166.14;1701906;82;21045;-90
2022/11/13 16:57:00;;;;;;;15.35;9.95;;;;;;;8.25;100.00;101165.68;1720066;82;21095;-92
2022/11/13 16:59:47;;;;;;;12.50;8.33;;;;;;;8.18;100.00;101163.11;1735910;81;21156;-90
2022/11/13 17:02:37;;;;;;;17.12;9.15;;;;;;;8.14;100.00;101157.91;1694717;82;21900;-92
2022/11/13 17:05:31;;;;;;;11.93;8.35;;;;;;;8.20;100.00;101161.80;1685995;82;21122;-90
2022/11/13 17:08:20;;;;;;;16.35;9.45;;;;;;;8.18;100.00;101163.11;1700174;82;21049;-89
2022/11/13 17:11:12;;;;;;;13.90;8.05;;;;;;;8.23;100.00;101167.45;1634919;85;21039;-90
2022/11/13 17:14:01;;;;;;;17.32;10.28;;;;;;;8.20;100.00;101171.84;1702682;84;21079;-90
2022/11/13 17:16:49;;;;;;;16.62;8.90;;;;;;;8.19;100.00;101172.73;1694953;83;21252;-91
2022/11/13 17:19:39;;;;;;;16.42;9.33;;;;;;;8.10;100.00;101168.91;1695023;84;21082;-90
2022/11/13 17:22:23;;;;;;;16.73;8.83;;;;;;;8.16;100.00;101178.00;1700035;84;21091;-90
2022/11/13 17:25:09;;;;;;;18.65;9.65;;;;;;;8.15;100.00;101180.66;1609356;86;21019;-89
2022/11/13 17:27:53;;;;;;;13.45;7.95;;;;;;;8.13;100.00;101180.67;1644659;86;21681;-90
2022/11/13 17:30:43;;;;;;;18.67;8.60;;;;;;;8.14;100.00;101179.80;1689076;84;21053;-89
2022/11/13 17:33:31;;;;;;;18.02;10.63;;;;;;;8.13;100.00;101179.80;1698212;84;21413;-90
2022/11/13 17:36:15;;;;;;;20.50;8.88;;;;;;;8.14;100.00;101171.92;1683250;83;21003;-90
2022/11/13 17:39:04;;;;;;;15.72;9.10;;;;;;;8.09;100.00;101173.70;1696789;83;21031;-90
2022/11/13 17:41:56;;;;;;;20.27;9.03;;;;;;;8.05;100.00;101179.89;1684256;84;21045;-90
2022/11/13 17:44:42;;;;;;;12.78;7.17;;;;;;;8.00;100.00;101184.28;1685289;84;21245;-91
2022/11/13 17:47:27;;;;;;;30.55;16.62;;;;;;;7.99;100.00;101191.75;1694465;83;21076;-90
2022/11/13 17:50:13;;;;;;;19.42;11.43;;;;;;;7.93;100.00;101190.48;1693994;83;20994;-90
2022/11/13 17:53:01;;;;;;;19.77;10.90;;;;;;;7.84;100.00;101192.73;1651845;85;21129;-90
2022/11/13 17:56:06;;;;;;;16.87;9.10;;;;;;;7.90;100.00;101190.52;1685067;84;21555;-90
2022/11/13 17:58:51;;;;;;;17.57;10.03;;;;;;;7.91;100.00;101190.93;1689470;83;21298;-89
2022/11/13 18:01:37;;;;;;;18.52;11.83;;;;;;;7.90;100.00;101198.39;1651713;85;21566;-91
2022/11/13 18:04:23;;;;;;;16.35;8.35;;;;;;;7.84;100.00;101198.43;1650173;86;21335;-90
2022/11/13 18:07:08;;;;;;;14.95;10.00;;;;;;;7.69;100.00;101196.37;1642508;86;21049;-91
2022/11/13 18:09:57;;;;;;;13.68;8.43;;;;;;;7.68;100.00;101192.44;1648131;85;21042;-90
2022/11/13 18:12:43;;;;;;;15.85;8.68;;;;;;;7.65;100.00;101192.03;1635640;86;21836;-90
2022/11/13 18:15:30;;;;;;;15.50;9.28;;;;;;;7.61;100.00;101194.69;1627210;86;21367;-91
2022/11/13 18:18:20;;;;;;;16.45;10.18;;;;;;;7.64;100.00;101199.89;1657480;86;21109;-89
2022/11/13 18:21:21;;;;;;;16.30;10.90;;;;;;;7.62;100.00;101199.93;1631266;86;21106;-90
2022/11/13 18:24:12;;;;;;;11.70;7.72;;;;;;;7.60;100.00;101203.00;1638156;86;21150;-89
2022/11/13 18:27:00;;;;;;;12.70;7.40;;;;;;;7.55;100.00;101199.55;1690776;84;21312;-90
2022/11/13 22:15:46;;;;;;;11.90;6.47;;;;;;;5.04;100.00;101222.73;1853032;76;26623;-89
2022/11/13 22:18:32;;;;;;;12.03;6.55;;;;;;;5.37;100.00;101223.67;1764031;80;21108;-88
2022/11/13 22:21:18;;;;;;;12.50;6.35;;;;;;;6.57;100.00;101228.86;1757344;81;21240;-90
2022/11/13 22:24:04;;;;;;;13.48;7.47;;;;;;;6.30;100.00;101225.43;1757169;80;20960;-92
2022/11/13 22:26:48;;;;;;;9.53;6.60;;;;;;;6.19;100.00;101225.88;1757190;81;21072;-92
2022/11/13 22:29:34;;;;;;;10.72;6.83;;;;;;;6.21;100.00;101220.21;1757575;81;21015;-89
2022/11/13 22:32:19;;;;;;;13.22;6.50;;;;;;;6.22;100.00;101221.97;1757043;81;21043;-90
2022/11/13 22:35:06;;;;;;;8.18;5.85;;;;;;;6.28;100.00;101224.55;1758491;81;21323;-90
2022/11/13 22:37:53;;;;;;;12.73;5.65;;;;;;;6.14;100.00;101214.12;1757130;81;21036;-90
2022/11/13 22:40:38;;;;;;;11.80;6.33;;;;;;;6.09;100.00;101216.73;1757512;81;20992;-92
2022/11/13 22:43:23;;;;;;;11.80;6.08;;;;;;;6.30;100.00;101214.96;1757250;81;21737;-89
2022/11/13 22:46:13;;;;;;;11.80;6.33;;;;;;;6.26;100.00;101213.25;1757933;81;21124;-89
2022/11/13 22:49:00;;;;;;;13.00;6.00;;;;;;;6.26;100.00;101221.09;1759946;80;21128;-91
2022/11/13 22:51:46;;;;;;;11.95;5.60;;;;;;;6.30;100.00;101214.96;1760895;80;20977;-90
2022/11/13 22:54:31;;;;;;;11.03;5.28;;;;;;;6.25;100.00;101220.65;1760751;80;21001;-91
2022/11/13 22:57:16;;;;;;;10.95;5.50;;;;;;;6.29;100.00;101218.47;1760745;81;21040;-91
2022/11/13 23:00:08;;;;;;;9.78;4.90;;;;;;;6.25;100.00;101218.89;1761004;80;21037;-91
2022/11/13 23:02:51;;;;;;;10.45;5.47;;;;;;;6.20;100.00;101221.09;1757967;81;21124;-90
2022/11/13 23:05:37;;;;;;;9.08;5.50;;;;;;;6.04;100.00;101219.80;1757311;80;21048;-92
2022/11/13 23:08:22;;;;;;;10.78;5.25;;;;;;;6.03;100.00;101222.00;1757500;80;21597;-89
2022/11/13 23:11:19;;;;;;;9.33;4.92;;;;;;;6.01;100.00;101217.64;1757079;80;21123;-89
2022/11/13 23:14:08;;;;;;;8.98;5.10;;;;;;;5.99;100.00;101227.23;1757752;80;21076;-90
2022/11/13 23:16:53;;;;;;;10.63;5.50;;;;;;;5.92;100.00;101227.63;1757556;80;21893;-90
2022/11/13 23:19:38;;;;;;;15.58;5.53;;;;;;;5.83;100.00;101223.27;1757806;81;21064;-92
2022/11/13 23:22:24;;;;;;;10.53;5.60;;;;;;;5.89;100.00;101225.03;1758670;80;21132;-89
2022/11/13 23:25:08;;;;;;;9.43;4.45;;;;;;;5.84;100.00;101226.34;1757642;81;21067;-90
2022/11/13 23:27:54;;;;;;;8.78;5.17;;;;;;;5.83;100.00;101232.86;1757139;81;21071;-89
2022/11/13 23:30:40;;;;;;;14.10;5.17;;;;;;;5.79;100.00;101232.42;1757732;81;21328;-90
2022/11/13 23:33:25;;;;;;;11.00;4.93;;;;;;;5.89;100.00;101231.56;1760643;80;21064;-91
2022/11/13 23:36:11;;;;;;;10.85;5.20;;;;;;;5.82;100.00;101233.71;1759658;81;21021;-91
2022/11/13 23:38:56;;;;;;;11.12;4.58;;;;;;;5.76;100.00;101238.96;1765970;78;21030;-89
2022/11/13 23:41:41;;;;;;;9.98;4.85;;;;;;;5.61;100.00;101240.70;1791655;78;20998;-91
2022/11/13 23:44:26;;;;;;;9.30;5.05;;;;;;;5.65;100.00;101240.25;1791007;80;21350;-91
2022/11/13 23:47:13;;;;;;;9.63;4.40;;;;;;;5.62;100.00;101242.43;1788499;80;21060;-91
2022/11/13 23:49:58;;;;;;;7.75;4.33;;;;;;;5.52;100.00;101242.41;1788380;78;21275;-91
2022/11/13 23:52:43;;;;;;;9.83;4.87;;;;;;;5.44;100.00;101248.94;1788408;80;21524;-90
2022/11/13 23:55:29;;;;;;;6.97;4.53;;;;;;;5.43;100.00;101257.21;1788258;80;20993;-91
2022/11/13 23:58:15;;;;;;;10.38;5.00;;;;;;;5.33;100.00;101261.09;1788751;80;21292;-90
